Time;durP1;ratioP1;P1;durP2;ratioP2;P2;SDS_P1;SDS_P2;PMS_P1;PMS_P2;Temp;Humidity;BMP_temperature;BMP_pressure;BME280_temperature;BME280_humidity;BME280_pressure;Samples;Min_cycle;Max_cycle;Signal;HPM_P1;HPM_P2
2023/06/26 00:01:11;;;;;;;7.70;5.78;;;23.90;99.90;;;;;;5034383;28;20197;-91
2023/06/26 00:03:38;;;;;;;5.68;5.13;;;23.90;99.90;;;;;;5033694;28;20281;-93
2023/06/26 00:06:05;;;;;;;6.28;5.43;;;23.90;99.90;;;;;;5034533;28;20199;-89
2023/06/26 00:08:32;;;;;;;6.18;5.57;;;23.90;99.90;;;;;;5038207;28;20202;-88
2023/06/26 00:10:59;;;;;;;6.25;5.63;;;23.90;99.90;;;;;;5037519;28;20276;-93
2023/06/26 00:13:27;;;;;;;5.68;5.15;;;23.90;99.90;;;;;;5038084;28;20281;-92
2023/06/26 00:15:54;;;;;;;5.55;5.05;;;23.90;99.90;;;;;;5038190;28;20211;-92
2023/06/26 00:18:23;;;;;;;6.93;5.60;;;23.80;99.90;;;;;;5037418;28;20254;-90
2023/06/26 00:20:50;;;;;;;6.35;5.28;;;23.80;99.90;;;;;;5022857;28;20536;-87
2023/06/26 00:23:18;;;;;;;7.75;5.47;;;23.80;99.90;;;;;;5037568;28;20294;-91
2023/06/26 00:25:45;;;;;;;6.97;6.10;;;23.80;99.90;;;;;;5028406;28;20322;-91
2023/06/26 00:28:12;;;;;;;10.73;5.82;;;23.60;99.90;;;;;;5017739;28;20234;-84
2023/06/26 00:30:40;;;;;;;6.25;5.65;;;23.60;99.90;;;;;;5018202;28;20519;-89
2023/06/26 00:33:07;;;;;;;9.70;6.65;;;23.40;99.90;;;;;;5017528;28;20199;-89
2023/06/26 00:35:35;;;;;;;9.85;6.05;;;23.40;99.90;;;;;;5017811;28;20632;-87
2023/06/26 00:38:02;;;;;;;6.70;5.97;;;23.30;99.90;;;;;;5017487;28;20191;-89
2023/06/26 00:40:29;;;;;;;8.85;6.30;;;23.20;99.90;;;;;;5017650;28;20857;-89
2023/06/26 00:42:57;;;;;;;7.18;5.60;;;23.10;99.90;;;;;;5017444;28;20287;-89
2023/06/26 00:45:23;;;;;;;7.65;5.78;;;23.00;99.90;;;;;;5017384;28;20202;-89
2023/06/26 00:47:52;;;;;;;9.10;6.50;;;22.90;99.90;;;;;;5017318;28;20661;-86
2023/06/26 00:50:20;;;;;;;8.77;5.93;;;22.80;99.90;;;;;;5017199;28;20199;-90
2023/06/26 00:52:47;;;;;;;13.40;5.88;;;22.70;99.90;;;;;;5026858;28;20222;-88
2023/06/26 00:55:15;;;;;;;8.82;5.97;;;22.70;99.90;;;;;;5036651;28;20199;-90
2023/06/26 00:57:43;;;;;;;7.55;5.72;;;22.60;99.90;;;;;;5035964;28;20599;-87
2023/06/26 01:00:11;;;;;;;9.52;6.00;;;22.50;99.90;;;;;;5030882;28;20219;-89
2023/06/26 01:02:38;;;;;;;11.30;6.00;;;22.40;99.90;;;;;;5016994;28;20199;-86
2023/06/26 01:05:10;;;;;;;9.95;6.50;;;22.30;99.90;;;;;;5016698;28;20203;-89
2023/06/26 01:07:38;;;;;;;11.57;6.32;;;22.20;99.90;;;;;;5016766;28;20195;-90
2023/06/26 01:10:06;;;;;;;11.05;6.05;;;22.20;99.90;;;;;;5017393;28;20792;-91
2023/06/26 01:12:33;;;;;;;12.20;6.72;;;22.10;99.90;;;;;;5017142;28;20215;-87
2023/06/26 01:15:01;;;;;;;9.98;6.40;;;22.00;99.90;;;;;;5017493;28;20701;-87
2023/06/26 01:17:32;;;;;;;11.10;6.72;;;22.00;99.90;;;;;;5016764;28;20211;-88
2023/06/26 01:20:00;;;;;;;13.20;6.93;;;21.90;99.90;;;;;;5016033;28;20215;-87
2023/06/26 01:22:45;;;;;;;13.77;7.13;;;21.80;99.90;;;;;;5017244;28;20242;-86
2023/06/26 01:25:18;;;;;;;11.85;6.68;;;21.80;99.90;;;;;;5016978;28;20575;-88
2023/06/26 01:27:50;;;;;;;15.45;6.65;;;21.70;99.90;;;;;;5017143;28;20198;-88
2023/06/26 01:30:18;;;;;;;17.00;8.18;;;21.70;99.90;;;;;;5017743;28;20203;-87
2023/06/26 01:32:46;;;;;;;17.42;7.78;;;21.70;99.90;;;;;;5016879;28;20286;-90
2023/06/26 01:35:13;;;;;;;16.80;7.95;;;21.60;99.90;;;;;;5036779;28;20202;-86
2023/06/26 01:37:40;;;;;;;12.75;7.78;;;21.50;99.90;;;;;;5037495;28;20499;-90
2023/06/26 01:40:09;;;;;;;18.15;8.45;;;21.50;99.90;;;;;;5036970;28;20222;-89
2023/06/26 01:42:37;;;;;;;19.48;8.95;;;21.50;99.90;;;;;;5016401;28;20223;-90
2023/06/26 01:45:11;;;;;;;15.00;8.63;;;21.50;99.90;;;;;;5016331;28;20282;-83
2023/06/26 01:47:42;;;;;;;15.45;8.07;;;21.40;99.90;;;;;;5016222;28;20304;-90
2023/06/26 01:50:15;;;;;;;16.30;8.18;;;21.40;99.90;;;;;;5026798;28;20282;-87
2023/06/26 01:52:44;;;;;;;13.30;6.82;;;21.40;99.90;;;;;;5035872;28;20222;-92
2023/06/26 01:55:19;;;;;;;16.98;8.20;;;21.40;99.90;;;;;;5035292;28;20237;-90
2023/06/26 01:57:47;;;;;;;18.42;7.68;;;21.30;99.90;;;;;;5023873;28;20282;-87
2023/06/26 02:00:19;;;;;;;15.63;7.57;;;21.20;99.90;;;;;;5034605;28;20249;-87
2023/06/26 02:02:46;;;;;;;20.02;7.00;;;21.20;99.90;;;;;;5034698;28;20294;-91
2023/06/26 02:05:13;;;;;;;18.02;7.55;;;21.10;99.90;;;;;;5028096;28;20713;-89
2023/06/26 02:07:40;;;;;;;14.35;6.82;;;21.10;99.90;;;;;;5014827;28;20230;-85
2023/06/26 02:10:09;;;;;;;20.30;7.95;;;21.10;99.90;;;;;;5014681;28;20231;-88
2023/06/26 02:12:37;;;;;;;15.02;6.68;;;21.00;99.90;;;;;;5014486;28;20830;-89
2023/06/26 02:15:05;;;;;;;16.00;6.80;;;21.00;99.90;;;;;;5014058;28;20203;-90
2023/06/26 02:17:34;;;;;;;16.42;7.60;;;20.90;99.90;;;;;;5014016;28;20206;-89
2023/06/26 02:20:00;;;;;;;13.15;6.18;;;20.90;99.90;;;;;;5014290;28;20231;-85
2023/06/26 02:22:28;;;;;;;15.73;6.70;;;20.80;99.90;;;;;;5014215;28;20202;-91
2023/06/26 02:24:55;;;;;;;16.50;7.18;;;20.80;99.90;;;;;;5013492;28;20242;-90
2023/06/26 02:27:22;;;;;;;16.70;6.93;;;20.70;99.90;;;;;;5014074;28;20231;-84
2023/06/26 02:29:49;;;;;;;12.07;7.15;;;20.70;99.90;;;;;;5018379;28;20199;-92
2023/06/26 02:32:16;;;;;;;14.98;7.40;;;20.60;99.90;;;;;;5034115;28;20233;-91
2023/06/26 02:34:45;;;;;;;17.05;6.55;;;20.60;99.90;;;;;;5034581;28;20199;-91
2023/06/26 02:37:12;;;;;;;14.30;6.47;;;20.60;99.90;;;;;;5034976;28;20207;-91
2023/06/26 02:39:38;;;;;;;11.60;6.20;;;20.60;99.90;;;;;;5034822;28;20206;-92
2023/06/26 02:42:06;;;;;;;17.45;7.43;;;20.50;99.90;;;;;;5035139;28;20206;-88
2023/06/26 02:44:33;;;;;;;12.07;6.97;;;20.40;99.90;;;;;;5028296;28;20227;-87
2023/06/26 02:47:00;;;;;;;11.95;5.85;;;20.40;99.90;;;;;;5015180;28;20230;-92
2023/06/26 02:49:27;;;;;;;10.77;5.35;;;20.40;99.90;;;;;;5015102;28;20230;-87
2023/06/26 02:51:55;;;;;;;8.85;5.55;;;20.40;99.90;;;;;;5015146;28;20199;-89
2023/06/26 02:54:22;;;;;;;9.90;5.28;;;20.40;99.90;;;;;;5014874;28;20203;-86
2023/06/26 02:56:49;;;;;;;11.90;5.88;;;20.50;99.90;;;;;;5015291;28;20219;-88
2023/06/26 02:59:17;;;;;;;7.50;4.63;;;20.50;99.90;;;;;;5014611;28;20195;-93
2023/06/26 03:01:44;;;;;;;9.77;5.10;;;20.40;99.90;;;;;;5014888;28;20258;-90
2023/06/26 03:04:11;;;;;;;7.53;4.47;;;20.40;99.90;;;;;;5014792;28;20237;-88
2023/06/26 03:06:38;;;;;;;11.00;4.30;;;20.30;99.90;;;;;;5014559;28;20215;-85
2023/06/26 03:09:07;;;;;;;6.50;4.45;;;20.30;99.90;;;;;;5014779;28;20211;-87
2023/06/26 03:11:33;;;;;;;8.93;4.63;;;20.20;99.90;;;;;;5015041;28;20196;-90
2023/06/26 03:14:00;;;;;;;8.68;4.30;;;20.20;99.90;;;;;;5014646;28;20246;-90
2023/06/26 03:16:27;;;;;;;9.80;3.90;;;20.10;99.90;;;;;;5014188;28;20227;-90
2023/06/26 03:18:54;;;;;;;6.82;4.55;;;20.10;99.90;;;;;;5014009;28;20504;-89
2023/06/26 03:21:21;;;;;;;10.05;4.20;;;20.00;99.90;;;;;;5015087;28;20277;-88
2023/06/26 03:23:48;;;;;;;6.57;4.25;;;20.00;99.90;;;;;;5014619;28;20191;-93
2023/06/26 03:26:17;;;;;;;8.90;3.95;;;19.90;99.90;;;;;;4996515;28;20580;-91
2023/06/26 03:28:44;;;;;;;7.38;4.65;;;19.90;99.90;;;;;;4995099;28;20207;-88
2023/06/26 03:31:11;;;;;;;8.50;4.40;;;20.00;99.90;;;;;;4995223;28;20266;-92
2023/06/26 03:33:38;;;;;;;7.68;4.40;;;20.00;99.90;;;;;;4995001;28;20632;-91
2023/06/26 03:36:06;;;;;;;9.15;4.68;;;19.90;99.90;;;;;;4995057;28;20668;-89
2023/06/26 03:38:33;;;;;;;8.25;4.03;;;19.90;99.90;;;;;;4995083;28;20219;-88
2023/06/26 03:41:00;;;;;;;7.72;3.95;;;19.90;99.90;;;;;;4994974;28;20302;-88
2023/06/26 03:43:30;;;;;;;7.28;4.13;;;19.80;99.90;;;;;;4982031;28;20226;-91
2023/06/26 03:45:57;;;;;;;8.02;4.22;;;19.70;99.90;;;;;;5005874;28;20207;-92
2023/06/26 03:48:24;;;;;;;8.80;4.65;;;19.70;99.90;;;;;;5020065;28;20281;-90
2023/06/26 03:50:52;;;;;;;8.10;4.30;;;19.70;99.90;;;;;;5022266;28;20278;-93
2023/06/26 03:53:19;;;;;;;8.90;4.65;;;19.60;99.90;;;;;;4999838;28;20764;-90
2023/06/26 03:55:46;;;;;;;9.70;4.60;;;19.60;99.90;;;;;;4998897;28;20207;-88
2023/06/26 03:58:13;;;;;;;7.35;3.97;;;19.50;99.90;;;;;;5017799;28;20207;-88
2023/06/26 04:00:42;;;;;;;12.40;4.63;;;19.50;99.90;;;;;;5018239;28;20272;-87
2023/06/26 04:03:09;;;;;;;8.10;4.63;;;19.50;99.90;;;;;;5018038;28;20254;-84
2023/06/26 04:05:35;;;;;;;7.90;4.05;;;19.50;99.90;;;;;;5018397;28;20227;-89
2023/06/26 04:08:03;;;;;;;8.38;3.67;;;19.50;99.90;;;;;;5018242;28;20203;-92
2023/06/26 04:10:30;;;;;;;10.40;4.72;;;19.50;99.90;;;;;;5017500;28;20209;-89
2023/06/26 04:12:56;;;;;;;12.07;4.03;;;19.50;99.90;;;;;;5018133;28;20766;-88
2023/06/26 04:15:23;;;;;;;7.45;3.95;;;19.40;99.90;;;;;;5018044;28;20640;-88
2023/06/26 04:17:52;;;;;;;9.98;4.57;;;19.40;99.90;;;;;;5011133;28;20769;-89
2023/06/26 04:20:19;;;;;;;8.55;4.13;;;19.50;99.90;;;;;;4998573;28;20585;-89
2023/06/26 04:22:46;;;;;;;6.95;3.88;;;19.50;99.90;;;;;;5002726;28;20269;-90
2023/06/26 04:25:13;;;;;;;8.43;3.88;;;19.50;99.90;;;;;;5027157;28;20257;-91
2023/06/26 04:27:40;;;;;;;9.60;3.58;;;19.50;99.90;;;;;;5013866;28;20269;-88
2023/06/26 04:30:08;;;;;;;7.15;3.67;;;19.50;99.90;;;;;;5017515;28;20258;-86
2023/06/26 04:32:35;;;;;;;9.18;3.42;;;19.60;99.90;;;;;;5018111;28;20620;-88
2023/06/26 04:35:04;;;;;;;9.15;3.65;;;19.60;99.90;;;;;;5018271;28;20371;-90
2023/06/26 04:37:31;;;;;;;7.72;3.50;;;19.70;99.90;;;;;;4997927;28;20220;-91
2023/06/26 04:39:58;;;;;;;8.40;3.83;;;19.70;99.90;;;;;;4998741;28;20215;-91
2023/06/26 04:42:25;;;;;;;10.45;4.38;;;19.70;99.90;;;;;;5004564;28;20222;-91
2023/06/26 04:44:52;;;;;;;8.65;3.75;;;19.70;99.90;;;;;;5017992;28;20202;-88
2023/06/26 04:47:19;;;;;;;7.22;3.55;;;19.70;99.90;;;;;;5017492;28;20235;-90
2023/06/26 04:49:46;;;;;;;6.90;3.60;;;19.70;99.90;;;;;;5017923;28;20207;-85
2023/06/26 04:52:15;;;;;;;5.07;3.38;;;19.80;99.90;;;;;;4997568;28;20266;-87
2023/06/26 04:54:42;;;;;;;7.13;3.25;;;19.80;99.90;;;;;;4997828;28;20247;-87
2023/06/26 04:57:11;;;;;;;5.28;3.00;;;19.80;99.90;;;;;;4997655;28;20255;-90
2023/06/26 04:59:38;;;;;;;7.95;3.40;;;19.80;99.90;;;;;;4997758;28;20207;-93
2023/06/26 05:02:06;;;;;;;6.85;3.28;;;19.90;99.90;;;;;;4998249;28;20568;-89
2023/06/26 05:04:33;;;;;;;7.78;3.05;;;19.90;99.90;;;;;;4997595;28;20228;-94
2023/06/26 05:07:00;;;;;;;8.52;3.83;;;20.00;99.90;;;;;;4997647;28;20208;-90
2023/06/26 05:09:28;;;;;;;9.68;3.53;;;20.00;99.90;;;;;;4997598;28;20192;-83
2023/06/26 05:11:55;;;;;;;6.88;3.70;;;20.10;99.90;;;;;;4997933;28;20234;-90
2023/06/26 05:14:22;;;;;;;12.65;4.70;;;20.10;99.90;;;;;;4997524;28;20675;-88
2023/06/26 05:16:49;;;;;;;8.52;4.20;;;20.20;99.90;;;;;;4997700;28;20208;-86
2023/06/26 05:19:16;;;;;;;8.80;3.63;;;20.20;99.90;;;;;;4996954;28;20211;-92
2023/06/26 05:21:44;;;;;;;7.10;3.65;;;20.20;99.90;;;;;;4996943;28;20247;-87
2023/06/26 05:24:13;;;;;;;9.48;4.03;;;20.30;99.90;;;;;;4998248;28;20239;-90
2023/06/26 05:26:42;;;;;;;9.75;3.80;;;20.30;99.90;;;;;;5017192;28;20684;-91
2023/06/26 05:29:10;;;;;;;5.90;3.63;;;20.40;99.90;;;;;;5017384;28;20203;-92
2023/06/26 05:31:41;;;;;;;6.45;3.38;;;20.50;99.90;;;;;;5017319;28;20274;-89
2023/06/26 05:34:11;;;;;;;6.55;3.08;;;20.60;99.90;;;;;;5017093;28;20207;-88
2023/06/26 05:36:39;;;;;;;8.40;3.50;;;20.80;99.90;;;;;;5017177;28;20262;-88
2023/06/26 05:39:07;;;;;;;8.43;3.75;;;21.00;99.90;;;;;;5016628;28;20191;-90
2023/06/26 05:41:34;;;;;;;6.90;3.40;;;21.20;99.90;;;;;;5031723;28;20226;-96
2023/06/26 05:44:03;;;;;;;7.57;3.65;;;21.40;99.90;;;;;;5037371;28;20622;-89
2023/06/26 05:46:30;;;;;;;6.57;3.13;;;21.60;99.90;;;;;;5031948;28;20214;-85
2023/06/26 05:48:57;;;;;;;7.03;3.33;;;21.80;99.90;;;;;;5031798;28;20314;-90
2023/06/26 05:51:25;;;;;;;10.23;3.50;;;21.90;99.90;;;;;;5036396;28;20201;-88
2023/06/26 05:53:52;;;;;;;8.07;3.08;;;22.10;99.90;;;;;;5036422;28;20295;-91
2023/06/26 05:56:20;;;;;;;8.98;3.13;;;22.30;99.90;;;;;;5036267;28;20282;-90
2023/06/26 05:58:47;;;;;;;6.80;3.00;;;22.50;99.90;;;;;;5035805;28;20570;-87
2023/06/26 06:01:16;;;;;;;12.73;3.20;;;22.50;99.90;;;;;;5035554;28;20246;-91
2023/06/26 06:03:42;;;;;;;6.82;2.80;;;22.50;99.90;;;;;;5035579;28;20206;-89
2023/06/26 06:06:09;;;;;;;9.38;3.05;;;22.50;99.90;;;;;;5032565;28;20245;-85
2023/06/26 06:08:36;;;;;;;6.97;2.53;;;22.40;99.90;;;;;;5016284;28;20234;-87
2023/06/26 06:11:03;;;;;;;7.75;2.80;;;22.40;99.90;;;;;;5016090;28;20606;-91
2023/06/26 06:13:30;;;;;;;5.93;3.03;;;22.40;99.90;;;;;;5025365;28;20198;-85
2023/06/26 06:15:57;;;;;;;8.40;3.10;;;22.30;99.90;;;;;;5035456;28;20198;-89
2023/06/26 06:18:26;;;;;;;7.57;3.20;;;22.40;99.90;;;;;;5028560;28;20511;-87
2023/06/26 06:20:52;;;;;;;8.18;3.10;;;22.40;99.90;;;;;;5016183;28;20205;-85
2023/06/26 06:23:28;;;;;;;7.43;3.22;;;22.30;99.90;;;;;;5000955;28;20217;-88
2023/06/26 06:25:55;;;;;;;5.40;2.30;;;22.20;99.90;;;;;;5032994;28;20238;-89
2023/06/26 06:28:22;;;;;;;6.60;2.95;;;21.90;99.90;;;;;;5028811;28;20269;-85
2023/06/26 06:30:50;;;;;;;8.05;2.63;;;21.90;99.90;;;;;;5028956;28;20205;-88
2023/06/26 06:33:17;;;;;;;6.97;3.10;;;22.00;99.90;;;;;;5034483;28;20205;-89
2023/06/26 06:35:45;;;;;;;8.38;2.58;;;22.20;99.90;;;;;;5035009;28;20538;-93
2023/06/26 06:38:12;;;;;;;8.95;2.88;;;22.50;99.90;;;;;;5030618;28;20221;-92
2023/06/26 06:40:39;;;;;;;8.20;3.00;;;22.60;99.90;;;;;;5032953;28;20692;-87
2023/06/26 06:43:06;;;;;;;6.38;2.50;;;22.70;99.90;;;;;;5035327;28;20498;-88
2023/06/26 06:45:33;;;;;;;8.07;3.13;;;22.80;99.90;;;;;;5034882;28;20298;-87
2023/06/26 06:48:00;;;;;;;5.55;2.70;;;22.80;99.90;;;;;;5015750;28;20597;-85
2023/06/26 06:50:27;;;;;;;9.52;2.75;;;22.90;99.90;;;;;;5020056;28;20194;-88
2023/06/26 06:52:55;;;;;;;7.20;2.28;;;23.10;99.90;;;;;;5034651;28;20195;-91
2023/06/26 06:55:23;;;;;;;7.38;2.42;;;23.20;99.90;;;;;;5034641;28;20194;-87
2023/06/26 06:57:51;;;;;;;8.68;2.17;;;23.30;99.90;;;;;;5034969;28;20207;-86
2023/06/26 07:00:18;;;;;;;9.38;2.58;;;23.20;99.90;;;;;;5034454;28;20634;-85
2023/06/26 07:02:46;;;;;;;7.35;2.95;;;23.30;99.90;;;;;;5034479;28;20912;-88
2023/06/26 07:05:13;;;;;;;4.75;2.30;;;23.50;99.90;;;;;;5034256;28;20626;-85
2023/06/26 07:07:41;;;;;;;8.55;2.42;;;23.60;99.90;;;;;;5032252;28;20284;-93
2023/06/26 07:10:11;;;;;;;7.78;2.42;;;23.60;99.90;;;;;;5034995;28;20234;-89
2023/06/26 07:12:39;;;;;;;9.50;2.10;;;23.60;99.90;;;;;;5032789;28;20203;-87
2023/06/26 07:15:07;;;;;;;9.27;2.38;;;23.60;99.90;;;;;;5033819;28;20289;-84
2023/06/26 07:17:35;;;;;;;5.65;1.95;;;23.70;99.90;;;;;;5033015;28;20828;-84
2023/06/26 07:20:06;;;;;;;8.57;2.33;;;23.90;99.90;;;;;;5034234;28;20282;-87
2023/06/26 07:22:33;;;;;;;5.35;2.10;;;24.10;99.90;;;;;;5030838;28;21275;-92
2023/06/26 07:25:00;;;;;;;11.25;2.80;;;24.30;99.90;;;;;;5014682;28;20231;-87
2023/06/26 07:27:28;;;;;;;5.93;2.35;;;24.40;99.90;;;;;;5014611;28;20223;-89
2023/06/26 07:29:55;;;;;;;7.43;2.33;;;24.50;99.90;;;;;;5014894;28;20572;-87
2023/06/26 07:32:24;;;;;;;6.03;1.95;;;24.70;99.90;;;;;;5025157;28;20203;-91
2023/06/26 07:34:51;;;;;;;6.30;2.42;;;24.70;99.90;;;;;;5034321;28;20602;-93
2023/06/26 07:37:18;;;;;;;8.85;2.15;;;24.70;99.90;;;;;;5017727;28;20203;-91
2023/06/26 07:39:46;;;;;;;8.18;2.10;;;24.40;99.90;;;;;;5015398;28;20226;-87
2023/06/26 07:42:13;;;;;;;6.65;2.22;;;24.30;99.90;;;;;;5015422;28;20847;-94
2023/06/26 07:44:42;;;;;;;10.50;1.90;;;24.00;99.90;;;;;;5030186;28;20214;-86
2023/06/26 07:47:09;;;;;;;6.43;2.17;;;24.00;99.90;;;;;;5034562;28;20227;-87
2023/06/26 07:49:36;;;;;;;7.75;2.72;;;24.00;99.90;;;;;;5024575;28;20239;-86
2023/06/26 07:52:03;;;;;;;7.88;2.65;;;24.00;99.90;;;;;;5014777;28;20611;-85
2023/06/26 07:54:30;;;;;;;4.68;1.75;;;23.90;99.90;;;;;;5014677;28;20253;-86
2023/06/26 07:56:58;;;;;;;6.60;1.90;;;23.90;99.90;;;;;;5031414;28;20226;-88
2023/06/26 07:59:26;;;;;;;7.55;2.35;;;24.10;99.90;;;;;;5035074;28;20195;-88
2023/06/26 08:01:57;;;;;;;7.65;2.20;;;24.00;99.90;;;;;;5034997;28;20282;-89
2023/06/26 08:04:26;;;;;;;5.63;1.80;;;23.90;99.90;;;;;;5034924;28;20206;-87
2023/06/26 08:06:54;;;;;;;7.85;2.83;;;23.60;99.90;;;;;;5034352;28;20609;-87
2023/06/26 08:09:23;;;;;;;8.40;2.05;;;23.70;99.90;;;;;;5016046;28;20223;-91
2023/06/26 08:11:50;;;;;;;9.10;2.00;;;23.70;99.90;;;;;;5015040;28;20196;-84
2023/06/26 08:14:18;;;;;;;9.52;2.55;;;23.60;99.90;;;;;;5029369;28;20285;-87
2023/06/26 08:16:45;;;;;;;7.15;2.20;;;23.70;99.90;;;;;;5020985;28;20207;-85
2023/06/26 08:19:14;;;;;;;5.95;2.33;;;23.70;99.90;;;;;;5015404;28;20203;-92
2023/06/26 08:21:42;;;;;;;5.75;1.90;;;24.00;99.90;;;;;;5015853;28;20203;-87
2023/06/26 08:24:09;;;;;;;4.35;1.88;;;24.30;99.90;;;;;;5034472;28;20201;-89
2023/06/26 08:26:37;;;;;;;6.10;1.92;;;24.40;99.90;;;;;;5034875;28;20468;-85
2023/06/26 08:29:07;;;;;;;7.95;2.45;;;24.60;99.90;;;;;;5028614;28;20203;-86
2023/06/26 08:31:34;;;;;;;6.05;1.85;;;24.60;99.90;;;;;;5035111;28;20285;-90
2023/06/26 08:34:02;;;;;;;6.65;2.08;;;24.60;99.90;;;;;;5029510;28;20487;-88
2023/06/26 08:36:30;;;;;;;6.35;2.30;;;24.70;99.90;;;;;;5037988;28;20209;-87
2023/06/26 08:38:57;;;;;;;10.18;2.20;;;25.00;99.90;;;;;;5032776;28;20211;-91
2023/06/26 08:41:24;;;;;;;6.45;2.00;;;25.00;99.90;;;;;;5030151;28;20237;-84
2023/06/26 08:43:52;;;;;;;4.40;1.70;;;24.90;99.90;;;;;;5037358;28;20226;-88
2023/06/26 08:46:20;;;;;;;7.15;2.35;;;24.80;99.90;;;;;;5017998;28;20246;-90
2023/06/26 08:48:55;;;;;;;7.43;2.70;;;24.70;99.90;;;;;;5018449;28;20889;-87
2023/06/26 08:51:25;;;;;;;8.68;2.40;;;24.70;99.90;;;;;;5022603;28;20293;-86
2023/06/26 08:53:58;;;;;;;9.90;2.17;;;24.60;99.90;;;;;;5036083;28;20646;-83
2023/06/26 08:56:26;;;;;;;6.63;1.92;;;24.70;99.90;;;;;;5038283;28;20195;-87
2023/06/26 08:58:53;;;;;;;8.30;2.30;;;24.50;99.90;;;;;;5032672;28;20282;-88
2023/06/26 09:01:21;;;;;;;6.40;2.20;;;24.70;99.90;;;;;;5018018;28;20203;-80
2023/06/26 09:03:48;;;;;;;7.40;1.98;;;24.80;99.90;;;;;;5017663;28;20231;-84
2023/06/26 09:06:15;;;;;;;7.72;2.08;;;24.80;99.90;;;;;;5017324;28;20203;-87
2023/06/26 09:08:42;;;;;;;6.15;2.00;;;24.70;99.90;;;;;;5017624;28;20545;-90
2023/06/26 09:11:11;;;;;;;7.38;2.20;;;24.70;99.90;;;;;;5017895;28;20203;-93
2023/06/26 09:13:38;;;;;;;7.57;2.25;;;24.70;99.90;;;;;;5018798;28;20678;-91
2023/06/26 09:16:07;;;;;;;9.80;2.70;;;24.80;99.90;;;;;;5017770;28;20199;-89
2023/06/26 09:18:35;;;;;;;5.10;1.95;;;24.70;99.90;;;;;;5034885;28;20889;-87
2023/06/26 09:21:06;;;;;;;7.95;2.05;;;24.90;99.90;;;;;;5031705;28;20285;-81
2023/06/26 09:23:34;;;;;;;6.22;2.03;;;25.00;99.90;;;;;;5021369;28;20227;-85
2023/06/26 09:26:03;;;;;;;7.55;2.10;;;25.10;99.90;;;;;;5017070;28;20243;-86
2023/06/26 09:28:33;;;;;;;6.60;2.20;;;25.30;99.90;;;;;;5017586;28;20219;-88
2023/06/26 09:31:03;;;;;;;7.63;1.95;;;25.10;99.90;;;;;;5019338;28;20192;-85
2023/06/26 09:33:35;;;;;;;10.20;2.15;;;25.10;99.90;;;;;;5026153;28;20199;-84
2023/06/26 09:36:05;;;;;;;6.57;2.08;;;24.90;99.90;;;;;;5017145;28;20188;-83
2023/06/26 09:38:32;;;;;;;8.85;2.20;;;24.70;99.90;;;;;;5016952;28;20203;-87
2023/06/26 09:40:59;;;;;;;8.68;2.35;;;24.80;99.90;;;;;;5029089;28;20191;-88
2023/06/26 09:43:26;;;;;;;9.50;2.33;;;24.70;99.90;;;;;;5035339;28;20258;-88
2023/06/26 09:45:55;;;;;;;7.22;2.30;;;24.70;99.90;;;;;;5033421;28;20204;-86
2023/06/26 09:48:23;;;;;;;6.60;2.13;;;24.60;99.90;;;;;;5030534;28;20234;-85
2023/06/26 09:50:50;;;;;;;10.85;2.03;;;24.50;99.90;;;;;;5030848;28;20199;-88
2023/06/26 09:53:18;;;;;;;4.57;1.90;;;24.60;99.90;;;;;;5034603;28;20281;-82
2023/06/26 09:55:46;;;;;;;7.03;2.13;;;24.80;99.90;;;;;;5016718;28;20204;-87
2023/06/26 09:58:15;;;;;;;6.93;2.47;;;24.80;99.90;;;;;;5016748;28;20257;-86
2023/06/26 10:00:42;;;;;;;7.68;1.92;;;24.50;99.90;;;;;;5016426;28;20234;-85
2023/06/26 10:03:12;;;;;;;8.35;1.92;;;24.30;99.90;;;;;;5016598;28;20219;-84
2023/06/26 10:05:39;;;;;;;4.55;1.90;;;24.40;99.90;;;;;;5016396;28;20209;-83
2023/06/26 10:08:07;;;;;;;7.95;2.00;;;24.40;99.90;;;;;;5015878;28;20609;-83
2023/06/26 10:10:37;;;;;;;8.10;2.20;;;24.40;99.90;;;;;;5017266;28;20199;-88
2023/06/26 10:13:09;;;;;;;10.65;2.03;;;24.40;99.90;;;;;;5016419;28;20281;-84
2023/06/26 10:15:37;;;;;;;6.35;1.85;;;24.50;99.90;;;;;;5015847;28;20189;-88
2023/06/26 10:18:04;;;;;;;8.68;2.40;;;24.40;99.90;;;;;;5019309;28;20201;-88
2023/06/26 10:20:34;;;;;;;4.95;1.60;;;24.40;99.90;;;;;;5036623;28;20245;-89
2023/06/26 10:23:03;;;;;;;5.70;1.65;;;24.40;99.90;;;;;;5035976;28;20692;-88
2023/06/26 10:25:32;;;;;;;8.50;2.13;;;24.40;99.90;;;;;;5035856;28;20456;-86
2023/06/26 10:28:03;;;;;;;5.35;1.83;;;24.30;99.90;;;;;;5016650;28;20274;-91
2023/06/26 10:30:34;;;;;;;6.90;2.40;;;24.30;99.90;;;;;;5016099;28;20209;-90
2023/06/26 10:33:02;;;;;;;9.48;2.25;;;24.20;99.90;;;;;;5026652;28;20242;-84
2023/06/26 10:35:29;;;;;;;7.43;1.80;;;24.20;99.90;;;;;;5034993;28;20634;-85
2023/06/26 10:38:03;;;;;;;8.43;2.25;;;24.40;99.90;;;;;;5035232;28;20690;-86
2023/06/26 10:40:44;;;;;;;5.90;1.90;;;24.70;99.90;;;;;;5030269;28;20211;-84
2023/06/26 10:43:13;;;;;;;7.78;2.33;;;24.70;99.90;;;;;;5014085;28;20234;-87
2023/06/26 10:45:45;;;;;;;8.23;2.22;;;24.80;99.90;;;;;;5027991;28;20510;-84
2023/06/26 10:48:17;;;;;;;9.73;2.08;;;24.70;99.90;;;;;;5014301;28;20257;-89
2023/06/26 10:50:47;;;;;;;7.72;1.65;;;24.40;99.90;;;;;;4996971;28;20226;-82
2023/06/26 10:53:26;;;;;;;7.15;2.30;;;24.10;99.90;;;;;;5016315;28;20206;-85
2023/06/26 10:55:59;;;;;;;4.80;1.73;;;23.70;99.90;;;;;;5032482;28;20272;-86
2023/06/26 10:58:34;;;;;;;8.15;2.05;;;23.80;99.90;;;;;;5035514;28;20614;-88
2023/06/26 11:01:21;;;;;;;5.50;2.03;;;23.60;99.90;;;;;;5035522;28;20523;-88
2023/06/26 11:03:50;;;;;;;7.80;2.00;;;23.60;99.90;;;;;;5020819;28;20517;-89
2023/06/26 11:06:20;;;;;;;6.07;1.92;;;23.30;99.90;;;;;;5014837;28;20230;-85
2023/06/26 11:08:49;;;;;;;7.75;1.90;;;23.30;99.90;;;;;;5025296;28;20641;-85
2023/06/26 11:11:17;;;;;;;7.05;2.08;;;23.40;99.90;;;;;;5034660;28;20195;-86
2023/06/26 11:13:46;;;;;;;7.80;2.10;;;23.40;99.90;;;;;;5035291;28;20234;-84
2023/06/26 11:16:14;;;;;;;6.38;2.00;;;23.50;99.90;;;;;;5030009;28;20255;-88
2023/06/26 11:18:41;;;;;;;5.75;2.38;;;23.50;99.90;;;;;;5015143;28;20265;-87
2023/06/26 11:21:09;;;;;;;9.93;2.25;;;23.70;99.90;;;;;;5016077;28;20221;-84
2023/06/26 11:23:37;;;;;;;7.47;2.25;;;23.70;99.90;;;;;;5029915;28;20568;-84
2023/06/26 11:26:21;;;;;;;5.85;2.35;;;23.70;99.90;;;;;;5035353;28;20234;-90
2023/06/26 11:28:52;;;;;;;6.65;1.98;;;23.60;99.90;;;;;;5035945;28;20187;-86
2023/06/26 11:31:26;;;;;;;4.70;1.65;;;23.70;99.90;;;;;;5029404;28;20270;-90
2023/06/26 11:33:54;;;;;;;4.88;1.70;;;23.70;99.90;;;;;;5015594;28;20202;-88
2023/06/26 11:36:24;;;;;;;5.43;2.00;;;23.60;99.90;;;;;;5015694;28;20552;-90
2023/06/26 11:38:54;;;;;;;5.43;1.70;;;23.60;99.90;;;;;;5015377;28;20238;-89
2023/06/26 11:41:23;;;;;;;7.65;2.72;;;23.40;99.90;;;;;;5026701;28;20241;-86
2023/06/26 11:43:51;;;;;;;5.15;1.80;;;23.50;99.90;;;;;;5034614;28;20219;-83
2023/06/26 11:46:19;;;;;;;5.60;2.00;;;23.70;99.90;;;;;;5024221;28;20596;-85
2023/06/26 11:48:47;;;;;;;4.70;1.80;;;23.80;99.90;;;;;;5014579;28;20223;-83
2023/06/26 11:51:14;;;;;;;6.63;1.75;;;23.70;99.90;;;;;;5015607;28;20195;-85
2023/06/26 11:53:42;;;;;;;7.43;1.77;;;23.50;99.90;;;;;;5014351;28;20199;-87
2023/06/26 11:56:11;;;;;;;7.32;1.80;;;23.20;99.90;;;;;;5015064;28;20199;-83
2023/06/26 11:58:57;;;;;;;6.35;1.95;;;23.00;99.90;;;;;;5015013;28;20195;-81
2023/06/26 12:01:25;;;;;;;8.80;1.70;;;23.00;99.90;;;;;;5014554;28;20191;-88
2023/06/26 12:03:52;;;;;;;5.68;1.92;;;23.00;99.90;;;;;;5018472;28;20219;-87
2023/06/26 12:06:19;;;;;;;5.78;2.20;;;23.00;99.90;;;;;;5019499;28;20205;-88
2023/06/26 12:08:46;;;;;;;5.57;2.00;;;23.10;99.90;;;;;;5018903;28;20195;-87
2023/06/26 12:11:14;;;;;;;4.93;2.25;;;23.20;99.90;;;;;;5019127;28;20203;-83
2023/06/26 12:13:43;;;;;;;5.72;1.83;;;23.00;99.90;;;;;;5035671;28;20202;-84
2023/06/26 12:16:10;;;;;;;4.70;1.85;;;22.90;99.90;;;;;;5038822;28;20387;-87
2023/06/26 12:18:36;;;;;;;4.70;1.35;;;22.90;99.90;;;;;;5039046;28;20238;-85
2023/06/26 12:21:04;;;;;;;5.47;1.92;;;23.00;99.90;;;;;;5028400;28;20215;-86
2023/06/26 12:23:36;;;;;;;5.07;1.98;;;23.00;99.90;;;;;;5019124;28;20292;-88
2023/06/26 12:26:18;;;;;;;5.63;1.63;;;23.00;99.90;;;;;;5027429;28;20227;-89
2023/06/26 12:28:47;;;;;;;9.82;2.40;;;23.20;99.90;;;;;;5038206;28;20229;-85
2023/06/26 12:31:15;;;;;;;5.43;1.55;;;23.20;99.90;;;;;;5039177;28;20206;-87
2023/06/26 12:33:43;;;;;;;5.78;1.80;;;23.10;99.90;;;;;;5021409;28;20226;-91
2023/06/26 12:36:13;;;;;;;7.03;1.90;;;23.20;99.90;;;;;;5020712;28;20261;-91
2023/06/26 12:38:40;;;;;;;8.63;1.98;;;23.40;99.90;;;;;;5019038;28;20289;-93
2023/06/26 12:41:12;;;;;;;5.07;1.92;;;23.50;99.90;;;;;;5035984;28;20209;-87
2023/06/26 12:43:39;;;;;;;4.95;2.00;;;23.70;99.90;;;;;;5034813;28;20219;-82
2023/06/26 12:46:08;;;;;;;5.13;2.00;;;23.60;99.90;;;;;;5018577;28;20199;-86
2023/06/26 12:48:43;;;;;;;5.38;1.73;;;23.60;99.90;;;;;;5018518;28;20226;-91
2023/06/26 12:51:11;;;;;;;3.85;1.52;;;23.50;99.90;;;;;;5018536;28;20600;-85